Brant Lake, NY

4:37 AM EST on January 30, 2015 (GMT -0500)
APRSWXNET Bolton Landing NY US | Change Station
CLOSE
Current Station
Personal Weather Station
Location: Bolton Landing, NY
Elevation: 400 ft
Nearby Weather Stations
Active Advisory: Winter Weather Advisory

Elev 400 ft 43.59 °N, 73.64 °W | Updated 44 minutes ago

Snow
Snow
26 °F
Feels Like 26 °F
N
0
Wind Variable Wind from WSW
Gusts 1.0 mph

Today
High -- | Low -- °F
--% Chance of Precip.
Yesterday
High -- | Low -- °F
Precip. -- in
7:13 AM 5:03 PM
Waxing Gibbous, 81% visible
Pressure 29.83 in
Visibility 2.5 miles
Clouds Mostly Cloudy 2200 ft
Overcast 7500 ft
Windchill 26 °F
Dew Point 24 °F
Humidity 92%
Rainfall 0.00 in
Snow Depth Not available.
UV 0 out of 12
Pollen .10 out of 12
Air Quality Not available.
Flu Activity Not available.
SPECI KGFL 300932Z AUTO 20004KT 2 1/2SM -SN BR BKN022 OVC075 M03/M04 A2983 RMK AO2 P0000 T10281044

More Conditions Fewer Conditions

Pressure 29.83 in
Visibility 2.5 miles
Clouds Mostly Cloudy 2200 ft
Overcast 7500 ft
Windchill 26 °F
Dew Point 24 °F
Humidity 92%
Rainfall 0.00 in
Snow Depth Not available.
UV 0 out of 12
Pollen .10 out of 12
Air Quality Not available.
Flu Activity Not available.
SPECI KGFL 300932Z AUTO 20004KT 2 1/2SM -SN BR BKN022 OVC075 M03/M04 A2983 RMK AO2 P0000 T10281044

More Conditions Fewer Conditions

10-Day Weather Forecast

Almanac

Astronomy

Jan. 30, 2015 Rise Set
Actual Time
Civil Twilight
Nautical Twilight
Astronomical Twilight
Moon
Length of Visible Light
Length of Day
Tomorrow will be .
, % of the Moon is Illuminated

Today's Extremes

State Highs State Lows

Community

WunderPhotos

Upload Photos

1,791,737 photos uploaded!

WunderBlogs® & News

Nearby

Air Quality

  Air Quality AQ Index Pollutant
Not available.

Snow Depth

Station Depth Elevation

Earthquake Activity

City Distance Mag. Time & Date
Minimum magnitude displayed is 2.5.

Coastal Water Temperatures

Place Temperature

Nearby Weather Stations